Time;durP1;ratioP1;P1;durP2;ratioP2;P2;SDS_P1;SDS_P2;PMS_P1;PMS_P2;Temp;Humidity;BMP_temperature;BMP_pressure;BME280_temperature;BME280_humidity;BME280_pressure;Samples;Min_cycle;Max_cycle;Signal;HPM_P1;HPM_P2
2024/04/18 00:00:10;;;;;;;;;;;;;;;;;;5476392;26;19928;-66
2024/04/18 00:02:37;;;;;;;;;;;;;;;;;;5471875;26;19928;-67
2024/04/18 00:05:05;;;;;;;;;;;;;;;;;;5482854;26;19928;-67
2024/04/18 00:07:31;;;;;;;;;;;;;;;;;;5481637;26;19935;-67
2024/04/18 00:10:00;;;;;;;;;;;;;;;;;;5481673;26;19928;-67
2024/04/18 00:12:26;;;;;;;;;;;;;;;;;;5478241;26;20252;-67
2024/04/18 00:14:55;;;;;;;;;;;;;;;;;;5481266;26;20016;-67
2024/04/18 00:17:21;;;;;;;;;;;;;;;;;;5481109;26;20256;-67
2024/04/18 00:19:49;;;;;;;;;;;;;;;;;;5482223;26;19999;-67
2024/04/18 00:22:15;;;;;;;;;;;;;;;;;;5482284;26;20383;-67
2024/04/18 00:24:44;;;;;;;;;;;;;;;;;;5481232;26;20028;-67
2024/04/18 00:27:10;;;;;;;;;;;;;;;;;;5479912;26;19936;-66
2024/04/18 00:29:39;;;;;;;;;;;;;;;;;;5471281;26;19932;-67
2024/04/18 00:32:05;;;;;;;;;;;;;;;;;;5480549;26;19935;-66
2024/04/18 00:34:34;;;;;;;;;;;;;;;;;;5481292;26;19935;-66
2024/04/18 00:37:00;;;;;;;;;;;;;;;;;;5481537;26;20416;-66
2024/04/18 00:39:28;;;;;;;;;;;;;;;;;;5482057;26;20236;-66
2024/04/18 00:41:54;;;;;;;;;;;;;;;;;;5479907;26;20509;-67
2024/04/18 00:44:23;;;;;;;;;;;;;;;;;;5480633;26;19936;-67
2024/04/18 00:46:49;;;;;;;;;;;;;;;;;;5478843;26;19935;-66
2024/04/18 00:49:18;;;;;;;;;;;;;;;;;;5481120;26;19935;-66
2024/04/18 00:51:44;;;;;;;;;;;;;;;;;;5475756;26;20386;-67
2024/04/18 00:54:12;;;;;;;;;;;;;;;;;;5461863;26;20001;-67
2024/04/18 00:56:38;;;;;;;;;;;;;;;;;;5480630;26;20378;-67
2024/04/18 00:59:07;;;;;;;;;;;;;;;;;;5480165;26;20421;-67
2024/04/18 01:01:33;;;;;;;;;;;;;;;;;;5470249;26;20029;-68
2024/04/18 01:04:02;;;;;;;;;;;;;;;;;;5469424;26;19939;-67
2024/04/18 01:06:29;;;;;;;;;;;;;;;;;;5477089;26;20263;-67
2024/04/18 01:08:58;;;;;;;;;;;;;;;;;;5459083;26;19933;-67
2024/04/18 01:11:24;;;;;;;;;;;;;;;;;;5479580;26;20365;-67
2024/04/18 01:13:53;;;;;;;;;;;;;;;;;;5478309;26;19938;-68
2024/04/18 01:16:19;;;;;;;;;;;;;;;;;;5478130;26;20383;-67
2024/04/18 01:18:47;;;;;;;;;;;;;;;;;;5480486;26;20470;-67
2024/04/18 01:21:13;;;;;;;;;;;;;;;;;;5478541;26;20371;-67
2024/04/18 01:23:42;;;;;;;;;;;;;;;;;;5480378;26;20024;-67
2024/04/18 01:26:08;;;;;;;;;;;;;;;;;;5475696;26;19998;-67
2024/04/18 01:28:37;;;;;;;;;;;;;;;;;;5472459;26;19928;-67
2024/04/18 01:31:03;;;;;;;;;;;;;;;;;;5481758;26;19935;-67
2024/04/18 01:33:32;;;;;;;;;;;;;;;;;;5478608;26;20000;-67
2024/04/18 01:35:58;;;;;;;;;;;;;;;;;;5478279;26;20269;-68
2024/04/18 01:38:26;;;;;;;;;;;;;;;;;;5477281;26;19964;-67
2024/04/18 01:40:52;;;;;;;;;;;;;;;;;;5480036;26;19928;-67
2024/04/18 01:43:21;;;;;;;;;;;;;;;;;;5479622;26;20556;-66
2024/04/18 01:45:47;;;;;;;;;;;;;;;;;;5479465;26;19928;-66
2024/04/18 01:48:16;;;;;;;;;;;;;;;;;;5481695;26;19928;-66
2024/04/18 01:50:42;;;;;;;;;;;;;;;;;;5479516;26;19928;-66
2024/04/18 01:53:10;;;;;;;;;;;;;;;;;;5475401;26;19936;-66
2024/04/18 01:55:36;;;;;;;;;;;;;;;;;;5460802;26;19928;-66
2024/04/18 01:58:05;;;;;;;;;;;;;;;;;;5478569;26;19996;-67
2024/04/18 02:00:31;;;;;;;;;;;;;;;;;;5479538;26;19932;-68
2024/04/18 02:03:00;;;;;;;;;;;;;;;;;;5479675;26;19928;-67
2024/04/18 02:05:26;;;;;;;;;;;;;;;;;;5474362;26;19963;-68
2024/04/18 02:07:55;;;;;;;;;;;;;;;;;;5479042;26;19935;-67
2024/04/18 02:10:21;;;;;;;;;;;;;;;;;;5478016;26;19929;-67
2024/04/18 02:12:49;;;;;;;;;;;;;;;;;;5461954;26;19928;-67
2024/04/18 02:15:16;;;;;;;;;;;;;;;;;;5472356;26;20721;-67
2024/04/18 02:17:44;;;;;;;;;;;;;;;;;;5465856;26;19936;-67
2024/04/18 02:20:10;;;;;;;;;;;;;;;;;;5483268;26;20422;-67
2024/04/18 02:22:39;;;;;;;;;;;;;;;;;;5482815;26;20046;-67
2024/04/18 02:25:05;;;;;;;;;;;;;;;;;;5472042;26;19929;-66
2024/04/18 02:27:34;;;;;;;;;;;;;;;;;;5481216;26;19935;-67
2024/04/18 02:30:00;;;;;;;;;;;;;;;;;;5474874;26;19928;-67
2024/04/18 02:32:28;;;;;;;;;;;;;;;;;;5451685;26;20005;-67
2024/04/18 02:34:54;;;;;;;;;;;;;;;;;;5483398;26;19936;-67
2024/04/18 02:37:23;;;;;;;;;;;;;;;;;;5484986;26;19996;-67
2024/04/18 02:39:49;;;;;;;;;;;;;;;;;;5484786;26;19931;-67
2024/04/18 02:42:18;;;;;;;;;;;;;;;;;;5482733;26;19960;-67
2024/04/18 02:44:44;;;;;;;;;;;;;;;;;;5480691;26;20390;-67
2024/04/18 02:47:13;;;;;;;;;;;;;;;;;;5483298;26;19956;-67
2024/04/18 02:49:39;;;;;;;;;;;;;;;;;;5458504;26;20274;-67
2024/04/18 02:52:07;;;;;;;;;;;;;;;;;;5482704;26;19932;-66
2024/04/18 02:54:33;;;;;;;;;;;;;;;;;;5452643;26;19929;-67
2024/04/18 02:57:02;;;;;;;;;;;;;;;;;;5470554;26;19936;-67
2024/04/18 02:59:28;;;;;;;;;;;;;;;;;;5480067;26;19932;-66
2024/04/18 03:01:57;;;;;;;;;;;;;;;;;;5482346;26;20391;-67
2024/04/18 03:04:23;;;;;;;;;;;;;;;;;;5484278;26;19927;-67
2024/04/18 03:06:52;;;;;;;;;;;;;;;;;;5484532;26;19939;-67
2024/04/18 03:09:18;;;;;;;;;;;;;;;;;;5483540;26;19936;-67
2024/04/18 03:11:46;;;;;;;;;;;;;;;;;;5482118;26;19977;-67
2024/04/18 03:14:12;;;;;;;;;;;;;;;;;;5477786;26;19928;-68
2024/04/18 03:16:41;;;;;;;;;;;;;;;;;;5471949;26;19935;-67
2024/04/18 03:19:07;;;;;;;;;;;;;;;;;;5469168;26;19947;-67
2024/04/18 03:21:36;;;;;;;;;;;;;;;;;;5482100;26;20013;-68
2024/04/18 03:24:02;;;;;;;;;;;;;;;;;;5481550;26;20362;-68
2024/04/18 03:26:31;;;;;;;;;;;;;;;;;;5467055;26;20389;-68
2024/04/18 03:28:57;;;;;;;;;;;;;;;;;;5482916;26;19928;-68
2024/04/18 03:31:25;;;;;;;;;;;;;;;;;;5482884;26;19932;-67
2024/04/18 03:33:51;;;;;;;;;;;;;;;;;;5480325;26;20017;-67
2024/04/18 03:36:20;;;;;;;;;;;;;;;;;;5472089;26;19931;-67
2024/04/18 03:38:49;;;;;;;;;;;;;;;;;;5481628;26;19962;-66
2024/04/18 03:41:17;;;;;;;;;;;;;;;;;;5480975;26;19928;-66
2024/04/18 03:43:46;;;;;;;;;;;;;;;;;;5481221;26;20481;-67
2024/04/18 03:46:15;;;;;;;;;;;;;;;;;;5482376;26;19928;-66
2024/04/18 03:48:43;;;;;;;;;;;;;;;;;;5481285;26;19928;-66
2024/04/18 03:51:09;;;;;;;;;;;;;;;;;;5481591;26;19927;-66
2024/04/18 03:53:38;;;;;;;;;;;;;;;;;;5481093;26;19928;-66
2024/04/18 03:56:04;;;;;;;;;;;;;;;;;;5484143;26;20363;-67
2024/04/18 03:58:33;;;;;;;;;;;;;;;;;;5461532;26;19940;-67
2024/04/18 04:00:59;;;;;;;;;;;;;;;;;;5480856;26;20440;-66
2024/04/18 04:03:28;;;;;;;;;;;;;;;;;;5480918;26;19960;-66
2024/04/18 04:05:54;;;;;;;;;;;;;;;;;;5481443;26;20385;-67
2024/04/18 04:08:23;;;;;;;;;;;;;;;;;;5480148;26;19928;-67
2024/04/18 04:10:49;;;;;;;;;;;;;;;;;;5479621;26;20444;-66
2024/04/18 04:13:17;;;;;;;;;;;;;;;;;;5479286;26;20313;-67
2024/04/18 04:15:43;;;;;;;;;;;;;;;;;;5481338;26;20513;-66
2024/04/18 04:18:12;;;;;;;;;;;;;;;;;;5481104;26;20347;-66
2024/04/18 04:20:38;;;;;;;;;;;;;;;;;;5483078;26;20378;-66
2024/04/18 04:23:07;;;;;;;;;;;;;;;;;;5483141;26;20324;-66
2024/04/18 04:25:33;;;;;;;;;;;;;;;;;;5481819;26;19928;-66
2024/04/18 04:28:01;;;;;;;;;;;;;;;;;;5470824;26;19928;-67
2024/04/18 04:30:27;;;;;;;;;;;;;;;;;;5468427;26;19946;-68
2024/04/18 04:32:56;;;;;;;;;;;;;;;;;;5480436;26;19938;-67
2024/04/18 04:35:24;;;;;;;;;;;;;;;;;;5477943;26;20254;-67
2024/04/18 04:37:53;;;;;;;;;;;;;;;;;;5479895;26;19935;-67
2024/04/18 04:40:19;;;;;;;;;;;;;;;;;;5473169;26;19940;-67
2024/04/18 04:42:47;;;;;;;;;;;;;;;;;;5480628;26;19956;-68
2024/04/18 04:45:13;;;;;;;;;;;;;;;;;;5480777;26;19931;-67
2024/04/18 04:47:42;;;;;;;;;;;;;;;;;;5476358;26;19934;-68
2024/04/18 04:50:08;;;;;;;;;;;;;;;;;;5474358;26;19928;-67
2024/04/18 04:52:37;;;;;;;;;;;;;;;;;;5480539;26;19939;-68
2024/04/18 04:55:03;;;;;;;;;;;;;;;;;;5479819;26;19950;-68
2024/04/18 04:57:32;;;;;;;;;;;;;;;;;;5479885;26;19932;-68
2024/04/18 04:59:58;;;;;;;;;;;;;;;;;;5477480;26;19935;-68
2024/04/18 05:02:26;;;;;;;;;;;;;;;;;;5476635;26;19935;-69
2024/04/18 05:04:52;;;;;;;;;;;;;;;;;;5478963;26;19928;-69
2024/04/18 05:07:21;;;;;;;;;;;;;;;;;;5468932;26;19928;-69
2024/04/18 05:09:47;;;;;;;;;;;;;;;;;;5479675;26;19928;-69
2024/04/18 05:12:16;;;;;;;;;;;;;;;;;;5480907;26;20041;-70
2024/04/18 05:14:42;;;;;;;;;;;;;;;;;;5456950;26;19940;-70
2024/04/18 05:17:11;;;;;;;;;;;;;;;;;;5476164;26;19928;-70
2024/04/18 05:19:38;;;;;;;;;;;;;;;;;;5479965;26;19928;-69
2024/04/18 05:22:06;;;;;;;;;;;;;;;;;;5472832;26;19928;-70
2024/04/18 05:24:33;;;;;;;;;;;;;;;;;;5480257;26;19961;-69
2024/04/18 05:27:02;;;;;;;;;;;;;;;;;;5479466;26;19928;-70
2024/04/18 05:32:15;;;;;;;;;;;;;;;;;;5465504;26;19939;-70
2024/04/18 05:34:44;;;;;;;;;;;;;;;;;;5478061;26;19928;-70
2024/04/18 05:37:13;;;;;;;;;;;;;;;;;;5479368;26;19935;-69
2024/04/18 05:39:41;;;;;;;;;;;;;;;;;;5475896;26;20389;-70
2024/04/18 05:42:10;;;;;;;;;;;;;;;;;;5461886;26;20495;-69
2024/04/18 05:44:39;;;;;;;;;;;;;;;;;;5479793;26;20269;-71
2024/04/18 05:47:07;;;;;;;;;;;;;;;;;;5476843;26;20533;-69
2024/04/18 05:49:36;;;;;;;;;;;;;;;;;;5474798;26;19928;-70
2024/04/18 05:52:05;;;;;;;;;;;;;;;;;;5477756;26;19935;-69
2024/04/18 05:54:34;;;;;;;;;;;;;;;;;;5480161;26;19927;-69
2024/04/18 05:57:02;;;;;;;;;;;;;;;;;;5477097;26;19955;-70
2024/04/18 05:59:31;;;;;;;;;;;;;;;;;;5469746;26;19928;-69
2024/04/18 06:02:00;;;;;;;;;;;;;;;;;;5481029;26;19934;-70
2024/04/18 06:04:28;;;;;;;;;;;;;;;;;;5479061;26;19931;-68
2024/04/18 06:06:57;;;;;;;;;;;;;;;;;;5478581;26;19928;-69
2024/04/18 06:09:26;;;;;;;;;;;;;;;;;;5476890;26;20466;-69
2024/04/18 06:11:54;;;;;;;;;;;;;;;;;;5478374;26;19939;-68
2024/04/18 06:14:23;;;;;;;;;;;;;;;;;;5478436;26;19927;-69
2024/04/18 06:16:52;;;;;;;;;;;;;;;;;;5478880;26;20383;-69
2024/04/18 06:19:21;;;;;;;;;;;;;;;;;;5476818;26;20404;-68
2024/04/18 06:21:49;;;;;;;;;;;;;;;;;;5478740;26;19935;-68
2024/04/18 06:24:18;;;;;;;;;;;;;;;;;;5478572;26;20422;-67
2024/04/18 06:26:47;;;;;;;;;;;;;;;;;;5473597;26;19935;-67
2024/04/18 06:29:15;;;;;;;;;;;;;;;;;;5474908;26;19928;-68
2024/04/18 06:31:44;;;;;;;;;;;;;;;;;;5450819;26;20506;-69
2024/04/18 06:34:13;;;;;;;;;;;;;;;;;;5464010;26;19928;-72
2024/04/18 06:36:41;;;;;;;;;;;;;;;;;;5463840;26;19942;-71
2024/04/18 06:39:10;;;;;;;;;;;;;;;;;;5472475;26;19928;-71
2024/04/18 06:41:39;;;;;;;;;;;;;;;;;;5469622;26;19927;-71
2024/04/18 06:44:07;;;;;;;;;;;;;;;;;;5469330;26;20358;-71
2024/04/18 06:46:38;;;;;;;;;;;;;;;;;;5468266;26;19966;-71
2024/04/18 06:49:07;;;;;;;;;;;;;;;;;;5465763;26;19931;-71
2024/04/18 06:51:35;;;;;;;;;;;;;;;;;;5476062;26;19935;-70
2024/04/18 06:54:04;;;;;;;;;;;;;;;;;;5474413;26;19936;-70
2024/04/18 06:56:33;;;;;;;;;;;;;;;;;;5483323;26;19932;-71
2024/04/18 06:59:02;;;;;;;;;;;;;;;;;;5473683;26;20363;-72
2024/04/18 07:01:30;;;;;;;;;;;;;;;;;;5461724;26;19942;-67
2024/04/18 07:03:59;;;;;;;;;;;;;;;;;;5480932;26;20018;-67
2024/04/18 07:06:25;;;;;;;;;;;;;;;;;;5483400;26;20275;-67
2024/04/18 07:08:54;;;;;;;;;;;;;;;;;;5467770;26;20000;-67
2024/04/18 07:11:22;;;;;;;;;;;;;;;;;;5480985;26;19928;-67
2024/04/18 07:13:53;;;;;;;;;;;;;;;;;;5468252;26;19940;-67
2024/04/18 07:16:22;;;;;;;;;;;;;;;;;;5480880;26;20039;-67
2024/04/18 07:18:50;;;;;;;;;;;;;;;;;;5482534;26;19928;-71
2024/04/18 07:21:19;;;;;;;;;;;;;;;;;;5459306;26;19928;-71
2024/04/18 07:23:48;;;;;;;;;;;;;;;;;;5473231;26;19928;-71
2024/04/18 07:26:17;;;;;;;;;;;;;;;;;;5483348;26;19928;-70
2024/04/18 07:28:46;;;;;;;;;;;;;;;;;;5482543;26;19928;-71
2024/04/18 07:31:14;;;;;;;;;;;;;;;;;;5461048;26;19935;-70
2024/04/18 07:33:43;;;;;;;;;;;;;;;;;;5470676;26;19928;-70
2024/04/18 07:36:13;;;;;;;;;;;;;;;;;;5481794;26;20273;-71
2024/04/18 07:38:42;;;;;;;;;;;;;;;;;;5462175;26;19939;-70
2024/04/18 07:41:10;;;;;;;;;;;;;;;;;;5479857;26;20275;-71
2024/04/18 07:43:39;;;;;;;;;;;;;;;;;;5478640;26;20009;-71
2024/04/18 07:46:08;;;;;;;;;;;;;;;;;;5468885;26;19928;-73
2024/04/18 07:48:37;;;;;;;;;;;;;;;;;;5477594;26;19928;-72
2024/04/18 07:51:06;;;;;;;;;;;;;;;;;;5468760;26;19927;-73
2024/04/18 07:53:34;;;;;;;;;;;;;;;;;;5477266;26;19932;-73
2024/04/18 07:56:04;;;;;;;;;;;;;;;;;;5463127;26;19932;-73
2024/04/18 07:58:32;;;;;;;;;;;;;;;;;;5475203;26;19935;-72
2024/04/18 08:01:01;;;;;;;;;;;;;;;;;;5474225;26;19936;-72
2024/04/18 08:03:30;;;;;;;;;;;;;;;;;;5458351;26;20445;-72
2024/04/18 08:05:58;;;;;;;;;;;;;;;;;;5481460;26;19928;-71
2024/04/18 08:08:27;;;;;;;;;;;;;;;;;;5471983;26;19939;-72
2024/04/18 08:10:56;;;;;;;;;;;;;;;;;;5477666;26;20270;-72
2024/04/18 08:13:24;;;;;;;;;;;;;;;;;;5461264;26;19928;-71
2024/04/18 08:15:53;;;;;;;;;;;;;;;;;;5472023;26;19980;-71
2024/04/18 08:18:22;;;;;;;;;;;;;;;;;;5473796;26;19928;-71
2024/04/18 08:20:50;;;;;;;;;;;;;;;;;;5478576;26;19943;-69
2024/04/18 08:23:20;;;;;;;;;;;;;;;;;;5480803;26;19956;-70
2024/04/18 08:25:49;;;;;;;;;;;;;;;;;;5465001;26;19931;-70
2024/04/18 08:28:17;;;;;;;;;;;;;;;;;;5463526;26;20232;-71
2024/04/18 08:30:46;;;;;;;;;;;;;;;;;;5479180;26;19939;-73
2024/04/18 08:33:15;;;;;;;;;;;;;;;;;;5473388;26;19944;-72
2024/04/18 08:35:44;;;;;;;;;;;;;;;;;;5476714;26;20438;-72
2024/04/18 08:38:12;;;;;;;;;;;;;;;;;;5466016;26;20498;-72
2024/04/18 08:40:43;;;;;;;;;;;;;;;;;;5480743;26;19935;-71
2024/04/18 08:43:12;;;;;;;;;;;;;;;;;;5469521;26;20347;-71
2024/04/18 08:45:41;;;;;;;;;;;;;;;;;;5480323;26;19928;-72
2024/04/18 08:48:09;;;;;;;;;;;;;;;;;;5468820;26;19928;-71
2024/04/18 08:50:38;;;;;;;;;;;;;;;;;;5479911;26;20498;-70
2024/04/18 08:53:07;;;;;;;;;;;;;;;;;;5477982;26;19935;-72
2024/04/18 08:55:35;;;;;;;;;;;;;;;;;;5480033;26;19929;-71
2024/04/18 08:58:04;;;;;;;;;;;;;;;;;;5480437;26;19928;-72
2024/04/18 09:00:33;;;;;;;;;;;;;;;;;;5478848;26;20378;-70
2024/04/18 09:03:01;;;;;;;;;;;;;;;;;;5456750;26;19928;-69
2024/04/18 09:05:30;;;;;;;;;;;;;;;;;;5477972;26;20377;-71
2024/04/18 09:07:59;;;;;;;;;;;;;;;;;;5472583;26;19935;-70
2024/04/18 09:10:27;;;;;;;;;;;;;;;;;;5477827;26;19935;-70
2024/04/18 09:12:56;;;;;;;;;;;;;;;;;;5474606;26;20408;-69
2024/04/18 09:15:25;;;;;;;;;;;;;;;;;;5462887;26;19934;-70
2024/04/18 09:17:53;;;;;;;;;;;;;;;;;;5462328;26;19995;-70
2024/04/18 09:20:22;;;;;;;;;;;;;;;;;;5478576;26;19928;-71
2024/04/18 09:22:52;;;;;;;;;;;;;;;;;;5479500;26;19928;-70
2024/04/18 09:25:21;;;;;;;;;;;;;;;;;;5476464;26;20438;-72
2024/04/18 09:27:50;;;;;;;;;;;;;;;;;;5476573;26;19928;-70
2024/04/18 09:30:19;;;;;;;;;;;;;;;;;;5470133;26;19928;-71
2024/04/18 09:32:47;;;;;;;;;;;;;;;;;;5463578;26;19936;-71
2024/04/18 09:35:16;;;;;;;;;;;;;;;;;;5458230;26;19928;-71
2024/04/18 09:37:45;;;;;;;;;;;;;;;;;;5471930;26;20363;-71
2024/04/18 09:40:13;;;;;;;;;;;;;;;;;;5461793;26;19928;-71
2024/04/18 09:42:42;;;;;;;;;;;;;;;;;;5453027;26;19940;-70
2024/04/18 09:45:11;;;;;;;;;;;;;;;;;;5468414;26;19935;-70
2024/04/18 09:47:39;;;;;;;;;;;;;;;;;;5477425;26;19928;-70
2024/04/18 09:50:08;;;;;;;;;;;;;;;;;;5470383;26;19932;-70
2024/04/18 09:52:37;;;;;;;;;;;;;;;;;;5481716;26;19928;-70
2024/04/18 09:55:05;;;;;;;;;;;;;;;;;;5460406;26;19939;-68
2024/04/18 09:57:34;;;;;;;;;;;;;;;;;;5477073;26;19928;-67
2024/04/18 10:00:03;;;;;;;;;;;;;;;;;;5471651;26;19928;-69
2024/04/18 10:02:32;;;;;;;;;;;;;;;;;;5474899;26;19976;-69
2024/04/18 10:05:01;;;;;;;;;;;;;;;;;;5469902;26;19929;-69
2024/04/18 10:07:29;;;;;;;;;;;;;;;;;;5464477;26;19935;-68
2024/04/18 10:09:58;;;;;;;;;;;;;;;;;;5476979;26;20348;-68
2024/04/18 10:12:24;;;;;;;;;;;;;;;;;;5474453;26;20439;-69
2024/04/18 10:14:53;;;;;;;;;;;;;;;;;;5476869;26;19928;-68
2024/04/18 10:17:22;;;;;;;;;;;;;;;;;;5469236;26;20389;-68
2024/04/18 10:19:51;;;;;;;;;;;;;;;;;;5465098;26;19928;-68
2024/04/18 10:22:22;;;;;;;;;;;;;;;;;;5468610;26;19928;-69
2024/04/18 10:24:50;;;;;;;;;;;;;;;;;;5471578;26;20446;-69
2024/04/18 10:27:19;;;;;;;;;;;;;;;;;;5470549;26;19932;-69
2024/04/18 10:29:51;;;;;;;;;;;;;;;;;;5465637;26;19931;-68
2024/04/18 10:32:20;;;;;;;;;;;;;;;;;;5481874;26;20021;-69
2024/04/18 10:34:48;;;;;;;;;;;;;;;;;;5482655;26;19928;-70
2024/04/18 10:37:17;;;;;;;;;;;;;;;;;;5479989;26;20341;-69
2024/04/18 10:39:46;;;;;;;;;;;;;;;;;;5482366;26;19944;-68
2024/04/18 10:42:15;;;;;;;;;;;;;;;;;;5478480;26;19935;-68
2024/04/18 10:44:44;;;;;;;;;;;;;;;;;;5476112;26;20335;-68
2024/04/18 10:47:13;;;;;;;;;;;;;;;;;;5458773;26;20325;-69
2024/04/18 10:49:41;;;;;;;;;;;;;;;;;;5482757;26;19928;-68
2024/04/18 10:52:10;;;;;;;;;;;;;;;;;;5474647;26;19935;-67
2024/04/18 10:54:39;;;;;;;;;;;;;;;;;;5481918;26;20019;-68
2024/04/18 10:57:08;;;;;;;;;;;;;;;;;;5466478;26;19928;-70
2024/04/18 10:59:37;;;;;;;;;;;;;;;;;;5469041;26;19936;-71
2024/04/18 11:02:06;;;;;;;;;;;;;;;;;;5467040;26;19932;-70
2024/04/18 11:04:34;;;;;;;;;;;;;;;;;;5454994;26;19939;-72
2024/04/18 11:07:03;;;;;;;;;;;;;;;;;;5478572;26;19928;-71
2024/04/18 11:09:33;;;;;;;;;;;;;;;;;;5480909;26;20400;-69
2024/04/18 11:12:02;;;;;;;;;;;;;;;;;;5472160;26;19932;-68
2024/04/18 11:14:31;;;;;;;;;;;;;;;;;;5476132;26;19931;-76
2024/04/18 11:17:00;;;;;;;;;;;;;;;;;;5480708;26;19998;-70
2024/04/18 11:19:28;;;;;;;;;;;;;;;;;;5458742;26;19928;-70
2024/04/18 11:21:57;;;;;;;;;;;;;;;;;;5450463;26;19987;-70
2024/04/18 11:24:26;;;;;;;;;;;;;;;;;;5471718;26;19928;-71
2024/04/18 11:26:54;;;;;;;;;;;;;;;;;;5471158;26;19928;-68
2024/04/18 11:29:23;;;;;;;;;;;;;;;;;;5480539;26;20274;-67
2024/04/18 11:31:52;;;;;;;;;;;;;;;;;;5461765;26;19996;-68
2024/04/18 11:34:21;;;;;;;;;;;;;;;;;;5480934;26;20516;-68
2024/04/18 11:36:49;;;;;;;;;;;;;;;;;;5475000;26;19960;-70
2024/04/18 11:39:18;;;;;;;;;;;;;;;;;;5465426;26;20359;-69
2024/04/18 11:41:47;;;;;;;;;;;;;;;;;;5474722;26;19932;-68
2024/04/18 11:44:15;;;;;;;;;;;;;;;;;;5472734;26;19928;-69
2024/04/18 11:46:45;;;;;;;;;;;;;;;;;;5474718;26;19930;-69
2024/04/18 11:49:14;;;;;;;;;;;;;;;;;;5455697;26;19944;-69
2024/04/18 11:51:43;;;;;;;;;;;;;;;;;;5461930;26;19928;-69
2024/04/18 11:54:09;;;;;;;;;;;;;;;;;;5472941;26;19965;-68
2024/04/18 11:56:38;;;;;;;;;;;;;;;;;;5476513;26;19928;-68
2024/04/18 11:59:06;;;;;;;;;;;;;;;;;;5474776;26;20362;-68
2024/04/18 12:01:35;;;;;;;;;;;;;;;;;;5458130;26;20410;-69
2024/04/18 12:04:04;;;;;;;;;;;;;;;;;;5468792;26;20267;-69
2024/04/18 12:06:33;;;;;;;;;;;;;;;;;;5462885;26;19936;-69
2024/04/18 12:09:01;;;;;;;;;;;;;;;;;;5478268;26;20259;-69
2024/04/18 12:11:31;;;;;;;;;;;;;;;;;;5466968;26;19928;-69
2024/04/18 12:13:59;;;;;;;;;;;;;;;;;;5465500;26;19955;-70
2024/04/18 12:16:30;;;;;;;;;;;;;;;;;;5458218;26;19932;-70
2024/04/18 12:18:59;;;;;;;;;;;;;;;;;;5477749;26;19935;-69
2024/04/18 12:21:27;;;;;;;;;;;;;;;;;;5479716;26;19940;-69
2024/04/18 12:23:53;;;;;;;;;;;;;;;;;;5478770;26;20384;-69
2024/04/18 12:26:22;;;;;;;;;;;;;;;;;;5479123;26;19944;-69
2024/04/18 12:28:51;;;;;;;;;;;;;;;;;;5477555;26;19928;-70
2024/04/18 12:31:20;;;;;;;;;;;;;;;;;;5468358;26;20647;-69
2024/04/18 12:33:49;;;;;;;;;;;;;;;;;;5481195;26;19928;-68
2024/04/18 12:36:17;;;;;;;;;;;;;;;;;;5477089;26;19928;-70
2024/04/18 12:38:47;;;;;;;;;;;;;;;;;;5476294;26;19928;-70
2024/04/18 12:41:15;;;;;;;;;;;;;;;;;;5478327;26;19939;-70
2024/04/18 12:43:44;;;;;;;;;;;;;;;;;;5478936;26;19935;-69
2024/04/18 12:46:13;;;;;;;;;;;;;;;;;;5478929;26;19927;-69
2024/04/18 12:48:42;;;;;;;;;;;;;;;;;;5477871;26;20136;-73
2024/04/18 12:51:11;;;;;;;;;;;;;;;;;;5469844;26;19935;-74
2024/04/18 12:53:40;;;;;;;;;;;;;;;;;;5475178;26;19932;-72
2024/04/18 12:56:08;;;;;;;;;;;;;;;;;;5476688;26;20047;-72
2024/04/18 12:58:37;;;;;;;;;;;;;;;;;;5479175;26;19935;-73
2024/04/18 13:01:06;;;;;;;;;;;;;;;;;;5479510;26;19928;-72
2024/04/18 13:03:34;;;;;;;;;;;;;;;;;;5480812;26;19948;-75
2024/04/18 13:06:03;;;;;;;;;;;;;;;;;;5469193;26;19928;-75
2024/04/18 13:08:32;;;;;;;;;;;;;;;;;;5478195;26;19928;-74
2024/04/18 13:11:00;;;;;;;;;;;;;;;;;;5479601;26;19954;-74
2024/04/18 13:13:29;;;;;;;;;;;;;;;;;;5478021;26;20077;-74
2024/04/18 13:15:58;;;;;;;;;;;;;;;;;;5475600;26;19928;-74
2024/04/18 13:18:26;;;;;;;;;;;;;;;;;;5475301;26;20364;-74
2024/04/18 13:20:55;;;;;;;;;;;;;;;;;;5475314;26;20047;-75
2024/04/18 13:23:24;;;;;;;;;;;;;;;;;;5472248;26;19985;-75
2024/04/18 13:25:53;;;;;;;;;;;;;;;;;;5463685;26;19937;-72
2024/04/18 13:28:22;;;;;;;;;;;;;;;;;;5468146;26;19935;-67
2024/04/18 13:30:48;;;;;;;;;;;;;;;;;;5475041;26;20356;-67
2024/04/18 13:33:16;;;;;;;;;;;;;;;;;;5470255;26;20301;-72
2024/04/18 13:35:45;;;;;;;;;;;;;;;;;;5476159;26;19928;-72
2024/04/18 13:38:14;;;;;;;;;;;;;;;;;;5469251;26;20257;-72
2024/04/18 13:40:42;;;;;;;;;;;;;;;;;;5478490;26;20027;-71
2024/04/18 13:43:11;;;;;;;;;;;;;;;;;;5466785;26;19996;-71
2024/04/18 13:45:40;;;;;;;;;;;;;;;;;;5457749;26;19935;-71
2024/04/18 13:48:08;;;;;;;;;;;;;;;;;;5453120;26;19935;-71
2024/04/18 13:50:37;;;;;;;;;;;;;;;;;;5476685;26;19935;-72
2024/04/18 13:53:06;;;;;;;;;;;;;;;;;;5478966;26;19935;-71
2024/04/18 13:55:35;;;;;;;;;;;;;;;;;;5464030;26;19935;-71
2024/04/18 13:58:03;;;;;;;;;;;;;;;;;;5476422;26;19954;-71
2024/04/18 14:00:32;;;;;;;;;;;;;;;;;;5470046;26;19928;-71
2024/04/18 14:03:01;;;;;;;;;;;;;;;;;;5472887;26;20367;-72
2024/04/18 14:05:30;;;;;;;;;;;;;;;;;;5484068;26;19928;-72
2024/04/18 14:07:59;;;;;;;;;;;;;;;;;;5472037;26;19932;-70
2024/04/18 14:10:28;;;;;;;;;;;;;;;;;;5482838;26;20263;-71
2024/04/18 14:12:57;;;;;;;;;;;;;;;;;;5482130;26;19928;-70
2024/04/18 14:15:35;;;;;;;;;;;;;;;;;;5482038;26;19937;-71
2024/04/18 14:20:49;;;;;;;;;;;;;;;;;;5487014;26;20261;-71
2024/04/18 14:23:18;;;;;;;;;;;;;;;;;;5483158;26;19952;-71
2024/04/18 14:25:46;;;;;;;;;;;;;;;;;;5482351;26;20044;-70
2024/04/18 14:28:15;;;;;;;;;;;;;;;;;;5479975;26;19928;-71
2024/04/18 14:30:44;;;;;;;;;;;;;;;;;;5469341;26;19932;-71
2024/04/18 14:33:13;;;;;;;;;;;;;;;;;;5470168;26;19928;-70
2024/04/18 14:35:42;;;;;;;;;;;;;;;;;;5466069;26;19938;-71
2024/04/18 14:38:10;;;;;;;;;;;;;;;;;;5468120;26;19948;-71
2024/04/18 14:40:39;;;;;;;;;;;;;;;;;;5475668;26;19928;-72
2024/04/18 14:43:08;;;;;;;;;;;;;;;;;;5470955;26;19932;-73
2024/04/18 14:45:36;;;;;;;;;;;;;;;;;;5473508;26;20386;-72
2024/04/18 14:48:05;;;;;;;;;;;;;;;;;;5480320;26;19932;-71
2024/04/18 14:50:34;;;;;;;;;;;;;;;;;;5472980;26;20491;-72
2024/04/18 14:53:02;;;;;;;;;;;;;;;;;;5470581;26;20011;-73
2024/04/18 14:55:31;;;;;;;;;;;;;;;;;;5473747;26;19928;-73
2024/04/18 14:58:00;;;;;;;;;;;;;;;;;;5474521;26;19932;-72
2024/04/18 15:00:29;;;;;;;;;;;;;;;;;;5472067;26;19948;-72
2024/04/18 15:02:57;;;;;;;;;;;;;;;;;;5466962;26;20378;-72
2024/04/18 15:05:26;;;;;;;;;;;;;;;;;;5481513;26;20375;-72
2024/04/18 15:07:54;;;;;;;;;;;;;;;;;;5472942;26;19928;-72
2024/04/18 15:10:24;;;;;;;;;;;;;;;;;;5471795;26;20346;-73
2024/04/18 15:12:53;;;;;;;;;;;;;;;;;;5473620;26;19940;-72
2024/04/18 15:15:22;;;;;;;;;;;;;;;;;;5478707;26;19935;-71
2024/04/18 15:17:51;;;;;;;;;;;;;;;;;;5471639;26;19935;-72
2024/04/18 15:20:20;;;;;;;;;;;;;;;;;;5471115;26;19928;-72
2024/04/18 15:22:49;;;;;;;;;;;;;;;;;;5473193;26;19996;-72
2024/04/18 15:25:18;;;;;;;;;;;;;;;;;;5469825;26;19928;-73
2024/04/18 15:27:46;;;;;;;;;;;;;;;;;;5471339;26;19994;-72
2024/04/18 15:30:17;;;;;;;;;;;;;;;;;;5469357;26;19932;-72
2024/04/18 15:32:46;;;;;;;;;;;;;;;;;;5466402;26;20019;-72
2024/04/18 15:35:15;;;;;;;;;;;;;;;;;;5468294;26;19939;-72
2024/04/18 15:37:44;;;;;;;;;;;;;;;;;;5475081;26;19940;-73
2024/04/18 15:40:12;;;;;;;;;;;;;;;;;;5473088;26;19935;-72
2024/04/18 15:42:41;;;;;;;;;;;;;;;;;;5475032;26;19943;-73
2024/04/18 15:45:10;;;;;;;;;;;;;;;;;;5462850;26;19928;-73
2024/04/18 15:47:38;;;;;;;;;;;;;;;;;;5471688;26;20292;-72
2024/04/18 15:50:07;;;;;;;;;;;;;;;;;;5458940;26;19928;-73
2024/04/18 15:52:38;;;;;;;;;;;;;;;;;;5498079;26;20372;-72
2024/04/18 15:55:06;;;;;;;;;;;;;;;;;;5478170;26;20286;-72
2024/04/18 15:57:35;;;;;;;;;;;;;;;;;;5479640;26;19927;-72
2024/04/18 16:00:04;;;;;;;;;;;;;;;;;;5479310;26;20487;-72
2024/04/18 16:02:33;;;;;;;;;;;;;;;;;;5478662;26;20443;-72
2024/04/18 16:05:02;;;;;;;;;;;;;;;;;;5474391;26;19939;-72
2024/04/18 16:07:30;;;;;;;;;;;;;;;;;;5474449;26;19943;-73
2024/04/18 16:09:59;;;;;;;;;;;;;;;;;;5468318;26;20000;-72
2024/04/18 16:12:28;;;;;;;;;;;;;;;;;;5473438;26;19928;-72
2024/04/18 16:14:56;;;;;;;;;;;;;;;;;;5446952;26;20023;-72
2024/04/18 16:17:25;;;;;;;;;;;;;;;;;;5473420;26;19928;-72
2024/04/18 16:19:54;;;;;;;;;;;;;;;;;;5479571;26;20345;-72
2024/04/18 16:22:22;;;;;;;;;;;;;;;;;;5464446;26;19929;-70
2024/04/18 16:24:51;;;;;;;;;;;;;;;;;;5476272;26;19935;-70
2024/04/18 16:27:20;;;;;;;;;;;;;;;;;;5477069;26;20209;-69
2024/04/18 16:29:49;;;;;;;;;;;;;;;;;;5467102;26;19928;-69
2024/04/18 16:32:18;;;;;;;;;;;;;;;;;;5477127;26;19928;-70
2024/04/18 16:34:47;;;;;;;;;;;;;;;;;;5480708;26;19943;-69
2024/04/18 16:37:16;;;;;;;;;;;;;;;;;;5478754;26;19929;-70
2024/04/18 16:39:44;;;;;;;;;;;;;;;;;;5464521;26;20382;-70
2024/04/18 16:42:13;;;;;;;;;;;;;;;;;;5481893;26;19928;-70
2024/04/18 16:44:42;;;;;;;;;;;;;;;;;;5468595;26;19943;-69
2024/04/18 16:47:10;;;;;;;;;;;;;;;;;;5483835;26;19938;-69
2024/04/18 16:49:40;;;;;;;;;;;;;;;;;;5478301;26;19935;-70
2024/04/18 16:52:08;;;;;;;;;;;;;;;;;;5475067;26;19936;-69
2024/04/18 16:54:37;;;;;;;;;;;;;;;;;;5476055;26;19927;-69
2024/04/18 16:57:06;;;;;;;;;;;;;;;;;;5475785;26;20379;-70